Time;durP1;ratioP1;P1;durP2;ratioP2;P2;SDS_P1;SDS_P2;PMS_P1;PMS_P2;Temp;Humidity;BMP_temperature;BMP_pressure;BME280_temperature;BME280_humidity;BME280_pressure;Samples;Min_cycle;Max_cycle;Signal;HPM_P1;HPM_P2
2021/04/07 00:01:23;;;;;;;6.03;3.00;;;19.50;57.50;;;;;;5124385;28;20423;-39
2021/04/07 00:03:53;;;;;;;4.90;2.50;;;19.40;57.30;;;;;;5124654;28;20448;-40
2021/04/07 00:06:24;;;;;;;4.00;2.57;;;19.40;57.60;;;;;;5124013;28;20449;-42
2021/04/07 00:08:54;;;;;;;3.67;2.60;;;19.40;56.50;;;;;;5124180;28;20576;-41
2021/04/07 00:11:24;;;;;;;3.43;2.80;;;19.40;55.90;;;;;;5114352;28;20440;-40
2021/04/07 00:13:54;;;;;;;5.60;2.70;;;19.30;56.70;;;;;;5124784;28;20421;-40
2021/04/07 00:16:24;;;;;;;4.27;2.63;;;19.40;56.70;;;;;;5124959;28;20437;-41
2021/04/07 00:18:54;;;;;;;5.13;2.80;;;19.50;56.70;;;;;;5124660;28;20475;-41
2021/04/07 00:21:25;;;;;;;5.47;2.70;;;19.50;57.10;;;;;;5123041;28;20414;-40
2021/04/07 00:23:55;;;;;;;3.00;2.30;;;19.40;56.70;;;;;;5123864;28;20527;-40
2021/04/07 00:26:25;;;;;;;3.30;3.00;;;19.40;57.30;;;;;;5123306;28;20468;-40
2021/04/07 00:28:55;;;;;;;3.70;2.50;;;19.30;57.40;;;;;;5121826;28;20765;-41
2021/04/07 00:31:25;;;;;;;5.57;3.30;;;19.20;55.70;;;;;;5122975;28;20465;-40
2021/04/07 00:33:55;;;;;;;5.10;2.70;;;19.10;56.50;;;;;;5122828;28;20921;-41
2021/04/07 00:36:26;;;;;;;4.20;2.60;;;19.00;56.10;;;;;;5122375;28;20499;-41
2021/04/07 00:38:56;;;;;;;4.70;2.40;;;19.00;57.40;;;;;;5122536;28;20431;-39
2021/04/07 00:41:26;;;;;;;3.37;2.70;;;19.00;56.30;;;;;;5121910;28;20453;-40
2021/04/07 00:44:03;;;;;;;4.20;2.10;;;18.80;56.70;;;;;;5123204;28;20484;-40
2021/04/07 00:46:37;;;;;;;3.03;2.77;;;18.80;56.50;;;;;;5123933;28;20441;-42
2021/04/07 00:49:07;;;;;;;4.13;2.60;;;18.80;55.30;;;;;;5124829;27;20456;-41
2021/04/07 00:51:42;;;;;;;5.20;2.53;;;18.80;56.10;;;;;;5121865;28;20533;-41
2021/04/07 00:54:12;;;;;;;8.03;2.47;;;18.60;57.20;;;;;;5124328;28;20485;-41
2021/04/07 00:56:44;;;;;;;3.63;2.57;;;18.60;56.50;;;;;;5121497;28;20460;-41
2021/04/07 00:59:15;;;;;;;3.27;2.70;;;18.50;56.60;;;;;;5123147;28;20451;-40
2021/04/07 01:01:46;;;;;;;3.00;2.50;;;18.50;57.90;;;;;;5122222;28;20451;-41
2021/04/07 01:04:19;;;;;;;4.77;3.60;;;18.40;57.10;;;;;;5123165;28;20493;-39
2021/04/07 01:06:52;;;;;;;1.87;1.77;;;18.50;57.50;;;;;;5117618;28;20561;-40
2021/04/07 01:09:21;;;;;;;3.90;2.80;;;18.40;58.30;;;;;;5122640;28;20435;-41
2021/04/07 01:11:51;;;;;;;2.90;2.37;;;18.40;57.30;;;;;;5122345;28;20445;-39
2021/04/07 01:14:22;;;;;;;5.07;3.63;;;18.40;55.90;;;;;;5124139;28;20441;-40
2021/04/07 01:16:53;;;;;;;3.20;2.63;;;18.30;56.50;;;;;;5119424;28;20475;-39
2021/04/07 01:19:25;;;;;;;4.43;3.03;;;18.30;55.20;;;;;;5123174;28;20556;-40
2021/04/07 01:21:57;;;;;;;3.50;2.53;;;18.10;55.30;;;;;;5122334;28;20475;-40
2021/04/07 01:24:28;;;;;;;4.53;2.77;;;18.00;56.60;;;;;;5123091;28;20472;-41
2021/04/07 01:26:59;;;;;;;3.03;2.30;;;17.90;57.90;;;;;;5122229;28;20447;-40
2021/04/07 01:29:30;;;;;;;5.30;2.60;;;17.90;58.00;;;;;;5124667;27;20469;-40
2021/04/07 01:32:00;;;;;;;3.90;2.23;;;17.90;58.30;;;;;;5123381;28;20442;-38
2021/04/07 01:34:32;;;;;;;3.93;2.53;;;17.90;57.90;;;;;;5122455;28;20445;-41
2021/04/07 01:37:02;;;;;;;3.53;2.30;;;17.80;58.70;;;;;;5123053;28;20535;-37
2021/04/07 01:39:33;;;;;;;6.20;2.37;;;17.70;59.00;;;;;;5122395;28;20854;-42
2021/04/07 01:42:03;;;;;;;3.90;2.37;;;17.70;58.60;;;;;;5122081;28;20949;-42
2021/04/07 01:44:37;;;;;;;2.20;1.93;;;17.70;58.70;;;;;;5123872;28;20480;-41
2021/04/07 01:47:26;;;;;;;3.00;2.20;;;17.50;58.60;;;;;;5123680;28;20564;-41
2021/04/07 01:49:57;;;;;;;5.57;2.23;;;17.40;59.50;;;;;;5123481;28;20448;-41
2021/04/07 01:52:27;;;;;;;5.60;2.57;;;17.40;60.00;;;;;;5122997;28;20468;-40
2021/04/07 01:54:59;;;;;;;7.67;2.67;;;17.30;59.70;;;;;;5123148;28;20445;-41
2021/04/07 01:57:29;;;;;;;3.87;2.47;;;17.40;58.60;;;;;;5122341;28;20455;-41
2021/04/07 01:59:59;;;;;;;3.43;2.30;;;17.30;59.50;;;;;;5123438;28;20497;-42
2021/04/07 02:02:29;;;;;;;2.80;2.60;;;17.20;59.40;;;;;;5123131;28;20477;-39
2021/04/07 02:04:59;;;;;;;4.57;2.63;;;17.00;59.60;;;;;;5123050;28;20626;-41
2021/04/07 02:07:29;;;;;;;2.80;2.60;;;16.90;62.00;;;;;;5123208;28;20449;-41
2021/04/07 02:10:05;;;;;;;4.63;2.70;;;16.90;60.90;;;;;;5122498;28;21167;-40
2021/04/07 02:12:35;;;;;;;2.70;2.20;;;16.80;62.70;;;;;;5120630;28;20486;-38
2021/04/07 02:15:09;;;;;;;4.43;2.80;;;16.70;61.70;;;;;;5123606;28;20423;-40
2021/04/07 02:17:39;;;;;;;3.37;2.90;;;16.60;63.40;;;;;;5122944;28;20444;-39
2021/04/07 02:20:11;;;;;;;3.67;3.03;;;16.50;64.00;;;;;;5121500;28;20450;-40
2021/04/07 02:22:41;;;;;;;3.33;2.80;;;16.50;62.90;;;;;;5117937;28;20484;-38
2021/04/07 02:25:13;;;;;;;7.10;3.17;;;16.40;63.40;;;;;;5122526;28;20452;-41
2021/04/07 02:27:44;;;;;;;7.20;3.33;;;16.40;61.30;;;;;;5121988;28;20843;-41
2021/04/07 02:30:16;;;;;;;5.37;3.20;;;16.20;65.40;;;;;;5123331;28;20430;-40
2021/04/07 02:32:46;;;;;;;4.23;3.07;;;16.10;64.40;;;;;;5125757;28;20415;-39
2021/04/07 02:35:16;;;;;;;4.53;2.90;;;16.00;64.90;;;;;;5126481;28;20511;-41
2021/04/07 02:37:46;;;;;;;3.63;3.00;;;15.90;64.60;;;;;;5126661;28;20557;-40
2021/04/07 02:40:18;;;;;;;3.23;2.60;;;15.80;68.20;;;;;;5125216;28;20501;-39
2021/04/07 02:42:48;;;;;;;4.63;2.60;;;15.70;69.40;;;;;;5124165;28;20496;-40
2021/04/07 02:45:18;;;;;;;2.80;2.60;;;15.60;72.40;;;;;;5126402;28;20502;-41
2021/04/07 02:47:49;;;;;;;2.97;2.53;;;15.40;70.10;;;;;;5126276;28;20477;-40
2021/04/07 02:50:19;;;;;;;2.87;2.67;;;15.30;72.30;;;;;;5126274;28;20478;-40
2021/04/07 02:52:49;;;;;;;4.53;2.73;;;15.20;73.40;;;;;;5121523;28;20459;-41
2021/04/07 02:55:20;;;;;;;3.90;2.70;;;15.10;74.80;;;;;;5125457;28;20515;-39
2021/04/07 02:57:51;;;;;;;2.70;2.00;;;15.00;76.50;;;;;;5109299;28;20468;-40
2021/04/07 03:00:22;;;;;;;4.50;2.97;;;14.90;77.00;;;;;;5126522;28;20517;-40
2021/04/07 03:02:52;;;;;;;3.43;2.70;;;14.80;80.90;;;;;;5124565;27;20479;-41
2021/04/07 03:05:22;;;;;;;3.23;3.00;;;14.70;84.10;;;;;;5124876;28;20443;-40
2021/04/07 03:07:52;;;;;;;4.70;2.80;;;14.60;86.70;;;;;;5124704;28;20443;-40
2021/04/07 03:10:23;;;;;;;3.80;2.97;;;14.50;88.50;;;;;;5125668;27;20997;-38
2021/04/07 03:12:53;;;;;;;4.87;2.50;;;14.40;85.80;;;;;;5124919;28;20483;-38
2021/04/07 03:15:23;;;;;;;4.23;2.87;;;14.40;89.50;;;;;;5124439;28;20522;-40
2021/04/07 03:17:53;;;;;;;4.70;2.93;;;14.30;89.70;;;;;;5125602;28;20508;-40
2021/04/07 03:20:23;;;;;;;6.67;3.83;;;14.10;89.00;;;;;;5125258;28;20442;-40
2021/04/07 03:22:53;;;;;;;5.53;4.07;;;14.00;88.00;;;;;;5124105;28;20486;-40
2021/04/07 03:25:25;;;;;;;6.40;4.20;;;13.90;89.70;;;;;;5124419;28;20453;-41
2021/04/07 03:27:55;;;;;;;6.57;4.80;;;13.90;88.10;;;;;;5125138;28;20449;-40
2021/04/07 03:30:25;;;;;;;4.43;4.00;;;13.80;88.50;;;;;;5128582;27;20446;-40
2021/04/07 03:32:55;;;;;;;11.40;4.80;;;13.80;91.10;;;;;;5124733;28;20924;-40
2021/04/07 03:35:25;;;;;;;5.30;4.30;;;13.80;93.10;;;;;;5125049;28;21010;-40
2021/04/07 03:37:55;;;;;;;7.13;4.73;;;13.70;93.00;;;;;;5125292;28;20518;-41
2021/04/07 03:40:26;;;;;;;7.40;4.10;;;13.60;93.60;;;;;;5125184;28;20520;-38
2021/04/07 03:42:56;;;;;;;5.53;4.57;;;13.40;91.90;;;;;;5111126;28;20928;-40
2021/04/07 03:45:27;;;;;;;7.57;4.93;;;13.30;92.50;;;;;;5123832;28;20485;-41
2021/04/07 03:47:57;;;;;;;4.53;4.13;;;13.20;92.20;;;;;;5123969;28;20473;-36
2021/04/07 03:50:27;;;;;;;5.63;4.20;;;13.10;92.30;;;;;;5125084;28;20468;-39
2021/04/07 03:52:57;;;;;;;10.20;4.60;;;13.10;92.60;;;;;;5119654;27;20785;-39
2021/04/07 03:55:28;;;;;;;6.43;5.30;;;13.00;92.70;;;;;;5124837;28;20442;-41
2021/04/07 03:57:58;;;;;;;10.40;4.27;;;13.00;94.20;;;;;;5123936;28;20434;-40
2021/04/07 04:00:28;;;;;;;7.70;5.00;;;12.90;93.80;;;;;;5124289;28;20449;-40
2021/04/07 04:02:58;;;;;;;5.20;4.77;;;12.90;93.60;;;;;;5122724;28;20474;-41
2021/04/07 04:05:28;;;;;;;9.37;5.53;;;12.90;93.80;;;;;;5123912;28;20449;-40
2021/04/07 04:07:58;;;;;;;6.17;5.27;;;12.80;93.30;;;;;;5124530;28;20778;-40
2021/04/07 04:10:30;;;;;;;7.77;5.60;;;12.70;93.80;;;;;;5124243;28;20442;-41
2021/04/07 04:13:02;;;;;;;5.40;4.43;;;12.70;94.30;;;;;;5120807;28;20457;-40
2021/04/07 04:15:32;;;;;;;5.60;4.87;;;12.60;94.90;;;;;;5123259;28;20808;-36
2021/04/07 04:18:06;;;;;;;5.27;4.10;;;12.60;94.10;;;;;;5123290;28;20450;-40
2021/04/07 04:20:36;;;;;;;4.80;3.63;;;12.60;93.20;;;;;;5123400;28;20477;-39
2021/04/07 04:23:06;;;;;;;4.13;3.73;;;12.70;92.40;;;;;;5123048;28;20542;-41
2021/04/07 04:25:37;;;;;;;4.13;3.20;;;12.80;92.20;;;;;;5124311;28;20463;-40
2021/04/07 04:28:07;;;;;;;5.00;4.10;;;12.80;92.20;;;;;;5123474;28;20461;-40
2021/04/07 04:30:37;;;;;;;4.13;3.77;;;12.90;91.90;;;;;;5124437;28;20472;-40
2021/04/07 04:33:08;;;;;;;5.27;3.70;;;12.90;92.40;;;;;;5123060;28;20490;-40
2021/04/07 04:35:38;;;;;;;3.53;3.23;;;13.00;92.00;;;;;;5123984;28;20940;-40
2021/04/07 04:38:08;;;;;;;4.73;3.23;;;13.00;92.00;;;;;;5122858;28;20502;-40
2021/04/07 04:40:39;;;;;;;5.40;3.47;;;13.00;91.90;;;;;;5107429;28;20478;-41
2021/04/07 04:43:09;;;;;;;3.00;2.80;;;13.00;92.30;;;;;;5122614;28;20492;-41
2021/04/07 04:45:39;;;;;;;3.50;2.90;;;12.90;93.00;;;;;;5123377;28;20472;-38
2021/04/07 04:48:10;;;;;;;3.83;3.43;;;12.70;93.20;;;;;;5123795;28;20453;-40
2021/04/07 04:50:40;;;;;;;6.97;3.13;;;12.60;93.90;;;;;;5123416;28;20514;-40
2021/04/07 04:53:10;;;;;;;4.13;3.10;;;12.60;94.20;;;;;;5122070;28;20446;-40
2021/04/07 04:55:41;;;;;;;5.60;3.60;;;12.60;94.10;;;;;;5116129;28;20458;-41
2021/04/07 04:58:11;;;;;;;6.00;3.50;;;12.60;94.40;;;;;;5123142;28;20446;-40
2021/04/07 05:00:41;;;;;;;4.13;3.13;;;12.60;94.30;;;;;;5123529;28;20457;-39
2021/04/07 05:03:11;;;;;;;4.00;3.50;;;12.60;94.60;;;;;;5123317;28;20481;-40
2021/04/07 05:05:41;;;;;;;3.93;3.60;;;12.50;95.00;;;;;;5114021;28;20820;-41
2021/04/07 05:08:11;;;;;;;4.13;3.53;;;12.40;95.80;;;;;;5122255;28;20559;-41
2021/04/07 05:10:42;;;;;;;5.63;3.40;;;12.30;96.50;;;;;;5123383;28;20448;-40
2021/04/07 05:13:12;;;;;;;4.90;3.43;;;12.20;97.30;;;;;;5122039;28;20542;-40
2021/04/07 05:15:43;;;;;;;5.33;3.07;;;12.00;97.80;;;;;;5118389;28;20460;-40
2021/04/07 05:18:15;;;;;;;6.70;3.53;;;12.00;98.90;;;;;;5121344;28;20453;-40
2021/04/07 05:20:45;;;;;;;5.53;3.80;;;11.90;99.50;;;;;;5123101;28;20441;-40
2021/04/07 05:23:15;;;;;;;8.33;3.80;;;11.90;98.80;;;;;;5122037;28;20484;-40
2021/04/07 05:25:46;;;;;;;5.80;3.30;;;11.90;98.50;;;;;;5123427;27;20453;-40
2021/04/07 05:28:16;;;;;;;7.70;3.17;;;12.00;98.60;;;;;;5120459;28;20545;-41
2021/04/07 05:31:01;;;;;;;4.90;3.57;;;11.90;98.90;;;;;;5113644;28;21085;-41
2021/04/07 05:33:36;;;;;;;5.43;4.40;;;11.80;99.40;;;;;;5115322;28;20536;-40
2021/04/07 05:36:07;;;;;;;4.97;3.37;;;11.80;99.40;;;;;;5122318;28;20513;-39
2021/04/07 05:38:37;;;;;;;5.60;4.17;;;11.60;99.90;;;;;;5122190;28;20457;-40
2021/04/07 05:41:09;;;;;;;7.57;4.03;;;11.50;99.90;;;;;;5119109;28;20962;-42
2021/04/07 05:43:41;;;;;;;5.37;3.47;;;11.60;99.90;;;;;;5120634;28;20220;-40
2021/04/07 05:46:13;;;;;;;6.13;2.80;;;11.60;99.90;;;;;;5119684;28;20463;-37
2021/04/07 05:48:43;;;;;;;5.33;2.83;;;11.50;99.90;;;;;;5122370;28;20467;-40
2021/04/07 05:51:13;;;;;;;4.55;3.67;;;11.50;99.90;;;;;;5112798;28;20518;-40
2021/04/07 05:53:43;;;;;;;3.83;3.25;;;11.40;99.90;;;;;;5122627;28;20206;-40
2021/04/07 05:56:34;;;;;;;5.47;3.13;;;11.30;99.90;;;;;;5122154;28;20224;-40
2021/04/07 05:59:04;;;;;;;5.10;3.33;;;11.30;99.90;;;;;;5122913;28;20457;-40
2021/04/07 06:01:34;;;;;;;5.73;3.17;;;11.20;99.90;;;;;;5122803;28;20204;-40
2021/04/07 06:04:05;;;;;;;5.10;3.70;;;11.10;99.90;;;;;;5121939;28;20551;-40
2021/04/07 06:06:35;;;;;;;7.85;3.25;;;11.10;99.90;;;;;;5125819;28;20296;-41
2021/04/07 06:09:05;;;;;;;9.47;4.13;;;11.00;99.90;;;;;;5126684;28;20205;-38
2021/04/07 06:11:36;;;;;;;4.17;3.00;;;11.00;99.90;;;;;;5126133;28;20444;-40
2021/04/07 06:14:06;;;;;;;5.17;3.20;;;10.90;99.90;;;;;;5126842;28;20481;-40
2021/04/07 06:16:36;;;;;;;5.77;3.37;;;10.80;99.90;;;;;;5126258;28;21059;-39
2021/04/07 06:19:06;;;;;;;3.60;3.30;;;10.80;99.90;;;;;;5127022;28;20452;-41
2021/04/07 06:21:36;;;;;;;4.88;3.67;;;10.80;99.90;;;;;;5126280;28;20201;-41
2021/04/07 06:24:07;;;;;;;5.03;3.60;;;10.70;99.90;;;;;;5122789;28;20316;-41
2021/04/07 06:26:40;;;;;;;6.43;4.45;;;10.60;99.90;;;;;;5125243;28;20267;-41
2021/04/07 06:29:10;;;;;;;7.10;4.50;;;10.60;99.90;;;;;;5126963;28;20297;-40
2021/04/07 06:31:41;;;;;;;6.13;4.38;;;10.60;99.90;;;;;;5126559;28;20250;-41
2021/04/07 06:34:11;;;;;;;4.20;3.80;;;10.50;99.90;;;;;;5127356;28;20190;-41
2021/04/07 06:36:41;;;;;;;5.18;3.60;;;10.40;99.90;;;;;;5126253;28;20271;-41
2021/04/07 06:39:11;;;;;;;8.18;3.70;;;10.40;99.90;;;;;;5126179;28;20265;-41
2021/04/07 06:41:42;;;;;;;4.90;4.50;;;10.30;99.90;;;;;;5126281;28;20214;-39
2021/04/07 06:44:14;;;;;;;6.70;3.63;;;10.30;99.90;;;;;;5126259;28;20229;-41
2021/04/07 06:47:05;;;;;;;4.47;3.42;;;10.20;99.90;;;;;;5119975;28;20196;-41
2021/04/07 06:49:35;;;;;;;7.88;4.68;;;10.10;99.90;;;;;;5127229;28;20208;-41
2021/04/07 06:52:07;;;;;;;6.82;4.25;;;10.00;99.90;;;;;;5126220;28;20631;-40
2021/04/07 06:54:38;;;;;;;6.05;4.30;;;10.00;99.90;;;;;;5125668;28;20236;-41
2021/04/07 06:57:09;;;;;;;5.78;4.25;;;10.00;99.90;;;;;;5125477;28;20205;-40
2021/04/07 06:59:39;;;;;;;4.28;3.88;;;9.90;99.90;;;;;;5125480;28;20226;-40
2021/04/07 07:02:10;;;;;;;5.95;4.40;;;9.80;99.90;;;;;;5126280;28;20196;-39
2021/04/07 07:04:41;;;;;;;4.47;4.05;;;9.80;99.90;;;;;;5126553;28;20271;-39
2021/04/07 07:07:11;;;;;;;5.45;4.35;;;9.80;99.90;;;;;;5125723;28;20192;-39
2021/04/07 07:09:41;;;;;;;4.90;4.40;;;9.70;99.90;;;;;;5125852;28;20216;-42
2021/04/07 07:12:14;;;;;;;4.47;4.07;;;9.70;99.90;;;;;;5125592;28;20204;-40
2021/04/07 07:14:44;;;;;;;5.25;3.60;;;9.60;99.90;;;;;;5126126;28;20204;-40
2021/04/07 07:17:14;;;;;;;5.63;3.60;;;9.50;99.90;;;;;;5115072;28;20200;-40
2021/04/07 07:19:50;;;;;;;5.30;3.50;;;9.40;99.90;;;;;;5126586;28;20198;-41
2021/04/07 07:22:23;;;;;;;4.60;4.07;;;9.40;99.90;;;;;;5125642;28;20288;-41
2021/04/07 07:24:55;;;;;;;7.93;4.00;;;9.30;99.90;;;;;;5125005;28;20315;-38
2021/04/07 07:27:38;;;;;;;7.45;4.07;;;9.30;99.90;;;;;;5124373;28;20219;-41
2021/04/07 07:30:10;;;;;;;8.40;4.10;;;9.20;99.90;;;;;;5125711;28;20196;-40
2021/04/07 07:32:41;;;;;;;6.22;4.40;;;9.20;99.90;;;;;;5125079;28;20188;-36
2021/04/07 07:35:13;;;;;;;4.88;3.53;;;9.10;99.90;;;;;;5126116;28;20249;-38
2021/04/07 07:37:45;;;;;;;6.30;4.43;;;9.10;99.90;;;;;;5124944;28;20204;-40
2021/04/07 07:40:26;;;;;;;6.57;4.30;;;9.10;99.90;;;;;;5124866;28;20253;-40
2021/04/07 07:42:57;;;;;;;4.72;4.32;;;9.00;99.90;;;;;;5124363;28;20244;-41
2021/04/07 07:45:30;;;;;;;9.63;4.97;;;9.00;99.90;;;;;;5125157;28;20236;-40
2021/04/07 07:48:11;;;;;;;7.60;4.25;;;9.00;99.90;;;;;;5125386;28;20199;-39
2021/04/07 07:50:44;;;;;;;5.57;4.47;;;9.00;99.90;;;;;;5124717;28;20285;-41
2021/04/07 07:53:15;;;;;;;6.82;4.20;;;8.90;99.90;;;;;;5125639;28;20304;-40
2021/04/07 07:55:47;;;;;;;8.57;4.95;;;8.80;99.90;;;;;;5125049;28;20207;-41
2021/04/07 07:58:19;;;;;;;7.47;4.70;;;8.80;99.90;;;;;;5123860;28;20192;-40
2021/04/07 08:00:49;;;;;;;6.93;4.57;;;8.70;99.90;;;;;;5124539;28;20260;-39
2021/04/07 08:03:19;;;;;;;7.13;4.28;;;8.70;99.90;;;;;;5124528;28;20221;-39
2021/04/07 08:05:49;;;;;;;5.18;4.53;;;8.60;99.90;;;;;;5125620;28;20191;-38
2021/04/07 08:08:19;;;;;;;6.22;4.93;;;8.60;99.90;;;;;;5125064;28;20206;-38
2021/04/07 08:10:49;;;;;;;4.65;4.20;;;8.60;99.90;;;;;;5124273;28;20207;-40
2021/04/07 08:13:20;;;;;;;4.60;4.20;;;8.50;99.90;;;;;;5110114;28;20192;-41
2021/04/07 08:15:52;;;;;;;6.85;4.68;;;8.50;99.90;;;;;;5124645;28;20200;-41
2021/04/07 08:18:22;;;;;;;7.13;5.05;;;8.50;99.90;;;;;;5123954;28;20204;-41
2021/04/07 08:20:53;;;;;;;5.80;4.65;;;8.40;99.90;;;;;;5125207;28;20269;-38
2021/04/07 08:23:25;;;;;;;11.63;4.72;;;8.40;99.90;;;;;;5124707;28;20219;-41
2021/04/07 08:25:56;;;;;;;5.22;4.72;;;8.40;99.90;;;;;;5124300;28;20234;-38
2021/04/07 08:28:29;;;;;;;5.70;5.10;;;8.40;99.90;;;;;;5123087;28;20223;-40
2021/04/07 08:30:59;;;;;;;6.25;4.47;;;8.30;99.90;;;;;;5124843;28;20196;-37
2021/04/07 08:33:29;;;;;;;8.13;4.70;;;8.30;99.90;;;;;;5115327;28;20598;-39
2021/04/07 08:36:00;;;;;;;5.72;4.70;;;8.20;99.90;;;;;;5125057;28;20249;-37
2021/04/07 08:38:34;;;;;;;5.50;4.95;;;8.20;99.90;;;;;;5123617;28;20204;-39
2021/04/07 08:41:11;;;;;;;6.55;4.85;;;8.20;99.90;;;;;;5124188;28;20219;-38
2021/04/07 08:43:44;;;;;;;4.72;4.30;;;8.10;99.90;;;;;;5123698;28;20288;-39
2021/04/07 08:46:16;;;;;;;6.10;4.70;;;8.10;99.90;;;;;;5124098;28;20214;-38
2021/04/07 08:48:46;;;;;;;4.50;4.10;;;8.00;99.90;;;;;;5122899;28;20245;-40
2021/04/07 08:51:21;;;;;;;7.95;5.22;;;8.10;99.90;;;;;;5124190;28;20282;-40
2021/04/07 08:53:56;;;;;;;5.70;4.25;;;8.10;99.90;;;;;;5123964;28;20208;-39
2021/04/07 08:56:29;;;;;;;6.05;3.92;;;8.10;99.90;;;;;;5122190;28;20754;-39
2021/04/07 08:59:01;;;;;;;8.07;4.50;;;8.00;99.90;;;;;;5116444;28;20199;-35
2021/04/07 09:01:35;;;;;;;7.57;5.05;;;7.90;99.90;;;;;;5123220;28;20230;-38
2021/04/07 09:04:08;;;;;;;6.10;4.82;;;7.90;99.90;;;;;;5123897;28;20275;-38
2021/04/07 09:06:39;;;;;;;7.82;4.15;;;7.90;99.90;;;;;;5107482;28;20180;-39
2021/04/07 09:09:09;;;;;;;9.05;5.32;;;7.80;99.90;;;;;;5123623;28;20196;-40
2021/04/07 09:11:42;;;;;;;7.13;5.10;;;7.80;99.90;;;;;;5122967;28;20216;-40
2021/04/07 09:14:15;;;;;;;6.72;4.22;;;7.80;99.90;;;;;;5123794;28;20204;-39
2021/04/07 09:16:45;;;;;;;8.15;5.38;;;7.80;99.90;;;;;;5121692;28;20215;-40
2021/04/07 09:19:17;;;;;;;5.80;4.57;;;7.80;99.90;;;;;;5123767;28;20268;-39
2021/04/07 09:21:59;;;;;;;5.93;5.30;;;7.80;99.90;;;;;;5123756;28;20187;-40
2021/04/07 09:24:37;;;;;;;5.00;4.38;;;7.70;99.90;;;;;;5123710;28;20272;-38
2021/04/07 09:27:08;;;;;;;5.55;4.18;;;7.60;99.90;;;;;;5121763;28;20211;-35
2021/04/07 09:29:41;;;;;;;6.80;4.80;;;7.60;99.90;;;;;;5123674;28;20586;-39
2021/04/07 09:32:17;;;;;;;9.88;5.75;;;7.60;99.90;;;;;;5123303;28;20200;-38
2021/04/07 09:34:48;;;;;;;6.90;5.55;;;7.50;99.90;;;;;;5123139;28;20199;-38
2021/04/07 09:37:20;;;;;;;6.38;5.60;;;7.40;99.90;;;;;;5122603;28;20216;-39
2021/04/07 09:39:50;;;;;;;6.65;5.50;;;7.40;99.90;;;;;;5123458;28;20192;-39
2021/04/07 09:42:21;;;;;;;7.18;5.13;;;7.40;99.90;;;;;;5122372;28;20277;-39
2021/04/07 09:44:53;;;;;;;6.10;4.93;;;7.40;99.90;;;;;;5123398;28;20292;-40
2021/04/07 09:47:30;;;;;;;7.95;5.90;;;7.30;99.90;;;;;;5122757;28;20204;-39
2021/04/07 09:50:09;;;;;;;9.10;5.50;;;7.40;99.90;;;;;;5123299;28;20203;-40
2021/04/07 09:52:42;;;;;;;8.35;5.70;;;7.40;99.90;;;;;;5122724;28;20221;-36
2021/04/07 09:55:21;;;;;;;7.88;5.70;;;7.40;99.90;;;;;;5123679;28;20217;-39
2021/04/07 09:58:01;;;;;;;10.82;5.90;;;7.30;99.90;;;;;;5122289;28;20216;-37
2021/04/07 10:00:35;;;;;;;11.10;6.00;;;7.40;99.90;;;;;;5123600;28;20656;-36
2021/04/07 10:03:16;;;;;;;10.05;6.45;;;7.30;99.90;;;;;;5112774;28;20195;-38
2021/04/07 10:05:46;;;;;;;7.88;6.50;;;7.20;99.90;;;;;;5123543;28;20235;-40
2021/04/07 10:08:17;;;;;;;9.80;6.22;;;7.30;99.90;;;;;;5122794;28;20547;-38
2021/04/07 10:10:47;;;;;;;8.95;6.88;;;7.20;99.90;;;;;;5122662;28;20221;-37
2021/04/07 10:13:17;;;;;;;8.20;6.35;;;7.20;99.90;;;;;;5108975;28;20252;-38
2021/04/07 10:15:49;;;;;;;8.18;6.80;;;7.20;99.90;;;;;;5122491;28;20200;-38
2021/04/07 10:18:20;;;;;;;6.57;5.80;;;7.20;99.90;;;;;;5122899;28;20223;-40
2021/04/07 10:20:50;;;;;;;11.32;6.40;;;7.20;99.90;;;;;;5122983;28;20317;-40
2021/04/07 10:23:22;;;;;;;8.50;6.75;;;7.10;99.90;;;;;;5122346;28;20204;-40
2021/04/07 10:25:55;;;;;;;9.05;6.15;;;7.10;99.90;;;;;;5123336;28;20192;-37
2021/04/07 10:28:25;;;;;;;8.15;6.25;;;7.00;99.90;;;;;;5122383;28;20555;-41
2021/04/07 10:30:57;;;;;;;8.02;6.10;;;7.00;99.90;;;;;;5123475;28;20253;-37
2021/04/07 10:33:28;;;;;;;8.25;6.47;;;6.90;99.90;;;;;;5117887;28;20200;-36
2021/04/07 10:36:01;;;;;;;12.35;6.85;;;6.80;99.90;;;;;;5123054;28;20204;-37
2021/04/07 10:38:32;;;;;;;8.32;7.03;;;6.80;99.90;;;;;;5122856;28;20196;-39
2021/04/07 10:41:04;;;;;;;9.82;6.57;;;6.80;99.90;;;;;;5123326;28;20188;-39
2021/04/07 10:43:39;;;;;;;7.07;6.05;;;6.80;99.90;;;;;;5121817;28;20208;-39
2021/04/07 10:46:10;;;;;;;12.95;6.97;;;6.80;99.90;;;;;;5122575;28;20264;-38
2021/04/07 10:48:40;;;;;;;8.18;6.68;;;6.80;99.90;;;;;;5122652;28;20196;-40
2021/04/07 10:51:11;;;;;;;10.60;7.10;;;6.80;99.90;;;;;;5122122;28;20192;-39
2021/04/07 10:53:43;;;;;;;9.15;6.75;;;6.70;99.90;;;;;;5126687;28;20226;-38
2021/04/07 10:56:20;;;;;;;9.25;6.32;;;6.70;99.90;;;;;;5125973;28;20229;-40
2021/04/07 10:58:55;;;;;;;10.38;6.95;;;6.70;99.90;;;;;;5126481;28;20192;-39
2021/04/07 11:01:30;;;;;;;9.93;7.22;;;6.60;99.90;;;;;;5125826;28;20206;-40
2021/04/07 11:04:12;;;;;;;8.50;6.57;;;6.60;99.90;;;;;;5125938;28;20242;-38
2021/04/07 11:06:42;;;;;;;8.77;6.82;;;6.60;99.90;;;;;;5125751;28;20196;-39
2021/04/07 11:09:14;;;;;;;9.50;6.28;;;6.50;99.90;;;;;;5125493;28;20229;-39
2021/04/07 11:11:45;;;;;;;8.57;6.28;;;6.40;99.90;;;;;;5125381;28;20192;-39
2021/04/07 11:14:16;;;;;;;8.40;6.10;;;6.40;99.90;;;;;;5126082;28;20204;-37
2021/04/07 11:16:55;;;;;;;8.52;5.85;;;6.40;99.90;;;;;;5125603;28;20520;-38
2021/04/07 11:19:33;;;;;;;9.65;5.63;;;6.40;99.90;;;;;;5125545;28;20233;-40
2021/04/07 11:22:03;;;;;;;7.20;5.35;;;6.50;99.90;;;;;;5125364;28;20199;-39
2021/04/07 11:24:33;;;;;;;10.45;5.93;;;6.40;99.90;;;;;;5125600;28;20219;-39
2021/04/07 11:27:04;;;;;;;6.47;4.88;;;6.40;99.90;;;;;;5124294;28;20184;-39
2021/04/07 11:29:35;;;;;;;6.70;5.18;;;6.50;99.90;;;;;;5125735;28;20192;-38
2021/04/07 11:32:09;;;;;;;8.00;5.20;;;6.50;99.90;;;;;;5125145;28;20216;-35
2021/04/07 11:35:02;;;;;;;5.90;4.13;;;6.50;99.90;;;;;;5125343;28;20267;-37
2021/04/07 11:37:41;;;;;;;5.97;4.25;;;6.50;99.90;;;;;;5124940;28;20240;-41
2021/04/07 11:40:42;;;;;;;8.05;4.90;;;6.50;99.90;;;;;;5125336;28;20200;-39
2021/04/07 11:43:15;;;;;;;4.93;3.83;;;6.50;99.90;;;;;;5124544;28;20204;-37
2021/04/07 11:45:46;;;;;;;5.03;4.35;;;6.40;99.90;;;;;;5125120;28;20601;-40
2021/04/07 11:48:37;;;;;;;6.18;4.72;;;6.40;99.90;;;;;;5125566;28;20200;-39
2021/04/07 11:51:08;;;;;;;5.60;4.50;;;6.50;99.90;;;;;;5125349;28;20268;-39
2021/04/07 11:53:38;;;;;;;4.75;4.28;;;6.40;99.90;;;;;;5125547;28;20196;-40
2021/04/07 11:56:08;;;;;;;6.03;4.97;;;6.40;99.90;;;;;;5125065;28;20279;-39
2021/04/07 11:58:38;;;;;;;4.30;3.90;;;6.50;99.90;;;;;;5123350;28;20249;-36
2021/04/07 12:01:09;;;;;;;5.55;3.90;;;6.40;99.90;;;;;;5124310;28;20208;-36
2021/04/07 12:03:43;;;;;;;6.10;4.07;;;6.40;99.90;;;;;;5120357;28;20204;-39
2021/04/07 12:06:13;;;;;;;4.55;3.97;;;6.30;99.90;;;;;;5125007;28;20237;-39
2021/04/07 12:08:43;;;;;;;6.57;3.40;;;6.40;99.90;;;;;;5120351;28;20234;-39
2021/04/07 12:11:14;;;;;;;8.80;4.35;;;6.30;99.90;;;;;;5124328;28;20204;-36
2021/04/07 12:13:45;;;;;;;6.75;4.85;;;6.30;99.90;;;;;;5124653;28;20211;-38
2021/04/07 12:16:15;;;;;;;6.90;4.35;;;6.40;99.90;;;;;;5120378;28;20264;-36
2021/04/07 12:18:46;;;;;;;5.68;4.05;;;6.30;99.90;;;;;;5115384;28;20200;-40
2021/04/07 12:21:17;;;;;;;6.90;4.15;;;6.30;99.90;;;;;;5124327;28;20196;-39
2021/04/07 12:23:49;;;;;;;4.35;3.75;;;6.30;99.90;;;;;;5116448;28;20215;-38
2021/04/07 12:26:18;;;;;;;5.13;4.63;;;6.30;99.90;;;;;;5123760;28;20196;-39
2021/04/07 12:28:52;;;;;;;5.20;4.35;;;6.20;99.90;;;;;;5117443;28;20261;-37
2021/04/07 12:31:24;;;;;;;9.10;4.10;;;6.10;99.90;;;;;;5124042;28;20244;-35
2021/04/07 12:33:56;;;;;;;5.18;3.70;;;6.10;99.90;;;;;;5117492;28;20199;-35
2021/04/07 12:36:28;;;;;;;5.20;3.80;;;6.10;99.90;;;;;;5124450;28;20212;-38
2021/04/07 12:38:59;;;;;;;6.45;4.05;;;6.10;99.90;;;;;;5124192;28;20584;-39
2021/04/07 12:41:32;;;;;;;6.05;3.97;;;6.10;99.90;;;;;;5122810;28;20223;-31
2021/04/07 12:44:03;;;;;;;6.47;4.05;;;6.10;99.90;;;;;;5118186;28;20292;-39
2021/04/07 12:46:34;;;;;;;5.43;3.58;;;6.00;99.90;;;;;;5123866;28;20208;-37
2021/04/07 12:49:05;;;;;;;4.95;3.75;;;6.00;99.90;;;;;;5124006;28;20200;-38
2021/04/07 12:51:39;;;;;;;4.40;3.88;;;6.00;99.90;;;;;;5123804;28;20274;-37
2021/04/07 12:54:13;;;;;;;6.95;4.10;;;6.00;99.90;;;;;;5124079;28;20208;-37
2021/04/07 12:56:43;;;;;;;4.75;3.25;;;6.00;99.90;;;;;;5123061;28;20229;-37
2021/04/07 12:59:13;;;;;;;6.68;3.95;;;6.00;99.90;;;;;;5111566;28;20204;-40
2021/04/07 13:01:43;;;;;;;3.50;3.00;;;5.90;99.90;;;;;;5122961;28;20299;-38
2021/04/07 13:04:17;;;;;;;4.07;3.67;;;5.90;99.90;;;;;;5124243;28;20291;-39
2021/04/07 13:06:46;;;;;;;5.68;3.65;;;5.90;99.90;;;;;;5120328;28;20512;-37
2021/04/07 13:09:17;;;;;;;4.10;3.28;;;5.90;99.90;;;;;;5123355;28;20204;-40
2021/04/07 13:11:47;;;;;;;3.80;3.28;;;5.90;99.90;;;;;;5121901;28;20208;-35
2021/04/07 13:14:17;;;;;;;5.75;3.20;;;5.90;99.90;;;;;;5122889;28;20693;-38